createdAt,value
2023-05-16T00:02:17.581Z,5.75
2023-05-16T00:04:46.472Z,9.48
2023-05-16T00:07:15.006Z,8.73
2023-05-16T00:09:43.255Z,6.45
2023-05-16T00:12:12.038Z,5.65
2023-05-16T00:14:40.709Z,14.18
2023-05-16T00:17:12.427Z,8.85
2023-05-16T00:19:42.440Z,8.95
2023-05-16T00:22:11.827Z,7.40
2023-05-16T00:24:40.467Z,8.77
2023-05-16T00:27:09.103Z,8.95
2023-05-16T00:29:37.623Z,7.60
2023-05-16T00:32:08.842Z,6.18
2023-05-16T00:34:39.036Z,9.80
2023-05-16T00:37:07.586Z,9.50
2023-05-16T00:39:36.261Z,4.13
2023-05-16T00:42:04.864Z,4.35
2023-05-16T00:44:33.518Z,7.25
2023-05-16T00:47:03.236Z,4.13
2023-05-16T00:49:32.030Z,7.07
2023-05-16T00:52:02.631Z,5.55
2023-05-16T00:54:32.410Z,6.40
2023-05-16T00:57:00.849Z,7.05
2023-05-16T00:59:29.514Z,9.00
2023-05-16T01:01:57.915Z,7.47
2023-05-16T01:04:27.052Z,4.80
2023-05-16T01:06:57.038Z,9.70
2023-05-16T01:09:30.322Z,4.85
2023-05-16T01:12:09.541Z,10.52
2023-05-16T01:14:47.517Z,7.00
2023-05-16T01:17:24.848Z,11.88
2023-05-16T01:20:05.300Z,7.88
2023-05-16T01:22:46.291Z,6.30
2023-05-16T01:25:33.113Z,6.95
2023-05-16T01:28:04.526Z,11.23
2023-05-16T01:30:36.607Z,8.77
2023-05-16T01:33:05.318Z,11.52
2023-05-16T01:35:34.252Z,8.68
2023-05-16T01:38:08.002Z,8.57
2023-05-16T01:40:47.514Z,9.48
2023-05-16T01:43:23.098Z,5.55
2023-05-16T01:46:01.783Z,9.63
2023-05-16T01:48:39.115Z,12.57
2023-05-16T01:51:08.782Z,5.90
2023-05-16T01:53:40.431Z,6.65
2023-05-16T01:56:16.865Z,6.20
2023-05-16T01:58:49.650Z,6.55
2023-05-16T02:01:18.294Z,7.75
2023-05-16T02:03:46.977Z,7.63
2023-05-16T02:06:15.389Z,5.93
2023-05-16T02:08:44.214Z,5.70
2023-05-16T02:11:12.534Z,6.45
2023-05-16T02:13:41.062Z,13.65
2023-05-16T02:16:12.493Z,7.43
2023-05-16T02:18:41.680Z,8.48
2023-05-16T02:21:10.224Z,5.70
2023-05-16T02:23:38.589Z,8.15
2023-05-16T02:26:07.092Z,11.07
2023-05-16T02:28:35.597Z,9.00
2023-05-16T02:31:04.836Z,6.63
2023-05-16T02:33:36.033Z,8.93
2023-05-16T02:36:04.668Z,11.73
2023-05-16T02:38:33.168Z,7.32
2023-05-16T02:41:01.593Z,7.93
2023-05-16T02:43:30.081Z,8.82
2023-05-16T02:45:58.717Z,7.47
2023-05-16T02:48:27.260Z,7.20
2023-05-16T02:50:57.340Z,10.80
2023-05-16T02:53:25.849Z,6.60
2023-05-16T02:55:54.189Z,6.55
2023-05-16T02:58:22.570Z,8.98
2023-05-16T03:00:51.051Z,11.20
2023-05-16T03:03:19.919Z,9.50
2023-05-16T03:05:49.053Z,7.03
2023-05-16T03:08:19.051Z,9.38
2023-05-16T03:10:47.538Z,7.63
2023-05-16T03:13:16.369Z,9.52
2023-05-16T03:15:45.137Z,6.15
2023-05-16T03:18:14.077Z,6.93
2023-05-16T03:20:42.424Z,4.28
2023-05-16T03:23:11.236Z,9.38
2023-05-16T03:25:41.146Z,5.15
2023-05-16T03:28:10.266Z,8.82
2023-05-16T03:30:38.792Z,6.65
2023-05-16T03:33:07.283Z,6.38
2023-05-16T03:35:36.891Z,6.90
2023-05-16T03:38:05.812Z,8.52
2023-05-16T03:40:34.264Z,9.40
2023-05-16T03:43:04.941Z,8.45
2023-05-16T03:45:33.229Z,9.90
2023-05-16T03:48:01.921Z,6.10
2023-05-16T03:50:30.508Z,8.13
2023-05-16T03:52:59.832Z,9.77
2023-05-16T03:55:28.601Z,8.77
2023-05-16T03:57:57.397Z,11.32
2023-05-16T04:00:28.072Z,7.10
2023-05-16T04:02:56.890Z,11.00
2023-05-16T04:05:25.634Z,6.13
2023-05-16T04:07:54.372Z,9.32
2023-05-16T04:10:23.181Z,6.60
2023-05-16T04:12:51.947Z,9.05
2023-05-16T04:15:21.096Z,7.45
2023-05-16T04:17:51.511Z,5.55
2023-05-16T04:20:19.846Z,7.57
2023-05-16T04:22:48.920Z,7.03
2023-05-16T04:25:17.547Z,7.55
2023-05-16T04:27:46.075Z,6.68
2023-05-16T04:30:16.301Z,9.38
2023-05-16T04:32:45.119Z,6.43
2023-05-16T04:35:15.371Z,14.35
2023-05-16T04:37:44.162Z,8.55
2023-05-16T04:40:14.607Z,9.98
2023-05-16T04:42:43.287Z,9.18
2023-05-16T04:45:14.805Z,8.30
2023-05-16T04:47:43.511Z,9.68
2023-05-16T04:50:12.554Z,9.52
2023-05-16T04:52:42.531Z,10.43
2023-05-16T04:55:12.501Z,9.65
2023-05-16T04:57:40.948Z,11.73
2023-05-16T05:00:12.376Z,8.77
2023-05-16T05:02:41.176Z,6.88
2023-05-16T05:05:11.563Z,7.60
2023-05-16T05:07:41.704Z,10.90
2023-05-16T05:10:11.905Z,6.05
2023-05-16T05:12:40.297Z,8.75
2023-05-16T05:15:09.793Z,11.30
2023-05-16T05:17:39.475Z,8.32
2023-05-16T05:20:10.819Z,10.75
2023-05-16T05:22:39.422Z,5.43
2023-05-16T05:25:10.332Z,11.05
2023-05-16T05:27:39.141Z,11.52
2023-05-16T05:30:08.982Z,5.85
2023-05-16T05:32:37.641Z,11.05
2023-05-16T05:35:07.615Z,10.38
2023-05-16T05:37:36.464Z,7.70
2023-05-16T05:40:05.415Z,11.20
2023-05-16T05:42:35.526Z,9.50
2023-05-16T05:45:04.995Z,11.10
2023-05-16T05:47:33.506Z,13.68
2023-05-16T05:50:02.863Z,14.77
2023-05-16T05:52:31.956Z,9.27
2023-05-16T05:55:00.704Z,11.30
2023-05-16T05:57:29.067Z,12.27
2023-05-16T05:59:59.150Z,13.48
2023-05-16T06:02:27.505Z,11.32
2023-05-16T06:04:56.310Z,11.35
2023-05-16T06:07:24.817Z,9.45
2023-05-16T06:09:53.288Z,9.43
2023-05-16T06:12:21.811Z,13.25
2023-05-16T06:14:50.207Z,9.63
2023-05-16T06:17:20.416Z,13.75
2023-05-16T06:19:49.023Z,11.30
2023-05-16T06:22:17.756Z,13.45
2023-05-16T06:24:46.193Z,16.95
2023-05-16T06:27:14.577Z,11.77
2023-05-16T06:29:42.880Z,12.40
2023-05-16T06:32:13.384Z,13.35
2023-05-16T06:34:43.384Z,12.60
2023-05-16T06:37:12.046Z,13.38
2023-05-16T06:39:40.378Z,13.32
2023-05-16T06:42:09.241Z,12.23
2023-05-16T06:44:37.640Z,18.52
2023-05-16T06:47:06.737Z,16.05
2023-05-16T06:49:35.104Z,9.38
2023-05-16T06:52:05.949Z,13.98
2023-05-16T06:54:34.801Z,9.25
2023-05-16T06:57:04.308Z,15.05
2023-05-16T06:59:32.786Z,22.33
2023-05-16T07:02:01.570Z,12.63
2023-05-16T07:04:30.906Z,16.00
2023-05-16T07:06:59.448Z,17.40
2023-05-16T07:09:29.428Z,17.92
2023-05-16T07:11:57.859Z,14.85
2023-05-16T07:14:26.486Z,17.02
2023-05-16T07:16:55.304Z,16.55
2023-05-16T07:19:24.241Z,15.35
2023-05-16T07:21:52.737Z,15.35
2023-05-16T07:24:21.216Z,18.38
2023-05-16T07:26:52.170Z,23.17
2023-05-16T07:29:20.654Z,19.77
2023-05-16T07:31:50.209Z,18.27
2023-05-16T07:34:21.190Z,16.48
2023-05-16T07:36:49.909Z,15.52
2023-05-16T07:39:18.468Z,19.48
2023-05-16T07:41:47.900Z,12.25
2023-05-16T07:44:18.973Z,15.55
2023-05-16T07:46:47.388Z,18.70
2023-05-16T07:49:16.188Z,21.63
2023-05-16T07:51:44.764Z,22.35
2023-05-16T07:54:13.332Z,23.08
2023-05-16T07:56:42.025Z,18.88
2023-05-16T07:59:12.675Z,20.35
2023-05-16T08:01:45.400Z,18.95
2023-05-16T08:04:14.592Z,17.45
2023-05-16T08:06:44.212Z,17.50
2023-05-16T08:09:12.997Z,19.60
2023-05-16T08:11:41.555Z,15.73
2023-05-16T08:14:10.189Z,19.23
2023-05-16T08:16:38.831Z,28.75
2023-05-16T08:19:08.911Z,19.67
2023-05-16T08:21:38.729Z,29.38
2023-05-16T08:24:07.873Z,21.73
2023-05-16T08:26:37.787Z,22.85
2023-05-16T08:29:06.467Z,24.63
2023-05-16T08:31:36.520Z,23.27
2023-05-16T08:34:06.751Z,21.02
2023-05-16T08:36:36.739Z,19.63
2023-05-16T08:39:06.367Z,21.63
2023-05-16T08:41:35.062Z,28.00
2023-05-16T08:44:03.739Z,16.83
2023-05-16T08:46:35.877Z,25.83
2023-05-16T08:49:08.214Z,23.20
2023-05-16T08:51:39.946Z,22.00
2023-05-16T08:54:13.709Z,20.80
2023-05-16T08:56:44.112Z,18.73
2023-05-16T08:59:13.268Z,25.20
2023-05-16T09:01:43.311Z,24.05
2023-05-16T09:04:13.469Z,26.27
2023-05-16T09:06:43.451Z,18.70
2023-05-16T09:09:13.305Z,21.52
2023-05-16T09:11:41.784Z,17.52
2023-05-16T09:14:10.231Z,22.33
2023-05-16T09:16:39.482Z,24.25
2023-05-16T09:19:09.654Z,17.63
2023-05-16T09:21:38.436Z,19.20
2023-05-16T09:24:11.471Z,25.85
2023-05-16T09:26:42.113Z,21.88
2023-05-16T09:29:14.381Z,20.90
2023-05-16T09:31:42.966Z,20.25
2023-05-16T09:34:13.296Z,23.23
2023-05-16T09:36:43.784Z,17.63
2023-05-16T09:39:17.146Z,21.10
2023-05-16T09:41:46.238Z,29.40
2023-05-16T09:44:15.162Z,16.75
2023-05-16T09:46:44.297Z,19.80
2023-05-16T09:49:14.655Z,19.85
2023-05-16T09:51:43.491Z,26.08
2023-05-16T09:54:13.540Z,18.52
2023-05-16T09:56:51.878Z,21.85
2023-05-16T09:59:20.792Z,22.48
2023-05-16T10:01:52.519Z,24.85
2023-05-16T10:04:21.025Z,15.25
2023-05-16T10:06:52.785Z,18.45
2023-05-16T10:09:25.412Z,18.13
2023-05-16T10:11:56.561Z,22.45
2023-05-16T10:14:28.185Z,18.65
2023-05-16T10:16:59.170Z,20.63
2023-05-16T10:19:28.305Z,20.08
2023-05-16T10:22:00.874Z,19.23
2023-05-16T10:24:45.565Z,18.20
2023-05-16T10:27:15.230Z,25.95
2023-05-16T10:29:54.123Z,14.60
2023-05-16T10:32:26.194Z,17.27
2023-05-16T10:34:56.477Z,24.67
2023-05-16T10:37:27.287Z,20.27
2023-05-16T10:39:58.521Z,25.38
2023-05-16T10:42:28.704Z,24.92
2023-05-16T10:45:04.949Z,21.17
2023-05-16T10:47:35.465Z,23.20
2023-05-16T10:50:04.365Z,18.90
2023-05-16T10:52:36.740Z,20.42
2023-05-16T10:55:08.164Z,20.42
2023-05-16T10:57:37.234Z,18.98
2023-05-16T11:00:23.219Z,18.48
2023-05-16T11:02:53.200Z,18.65
2023-05-16T11:05:21.931Z,21.80
2023-05-16T11:08:05.847Z,20.05
2023-05-16T11:10:36.159Z,19.45
2023-05-16T11:13:09.091Z,20.25
2023-05-16T11:15:37.537Z,17.48
2023-05-16T11:18:10.852Z,17.23
2023-05-16T11:20:43.025Z,16.70
2023-05-16T11:23:25.450Z,20.02
2023-05-16T11:26:01.347Z,16.45
2023-05-16T11:28:31.196Z,14.40
2023-05-16T11:31:02.587Z,14.18
2023-05-16T11:33:36.281Z,18.30
2023-05-16T11:36:15.802Z,18.40
2023-05-16T11:38:45.624Z,17.17
2023-05-16T11:41:18.009Z,14.70
2023-05-16T11:43:47.561Z,17.42
2023-05-16T11:46:17.818Z,17.83
2023-05-16T11:48:47.747Z,17.00
2023-05-16T11:51:21.096Z,18.08
2023-05-16T11:53:50.946Z,16.15
2023-05-16T11:56:23.554Z,19.48
2023-05-16T11:58:53.649Z,17.00
2023-05-16T12:01:22.372Z,18.23
2023-05-16T12:03:58.342Z,15.02
2023-05-16T12:06:29.635Z,14.90
2023-05-16T12:08:57.989Z,14.43
2023-05-16T12:11:28.152Z,15.07
2023-05-16T12:13:57.094Z,18.60
2023-05-16T12:16:26.223Z,17.48
2023-05-16T12:18:56.553Z,15.75
2023-05-16T12:21:25.238Z,14.57
2023-05-16T12:23:57.914Z,19.27
2023-05-16T12:26:31.217Z,17.45
2023-05-16T12:29:03.611Z,19.17
2023-05-16T12:31:33.597Z,15.68
2023-05-16T12:34:02.202Z,15.30
2023-05-16T12:36:35.218Z,15.27
2023-05-16T12:39:04.497Z,18.83
2023-05-16T12:41:34.766Z,18.27
2023-05-16T12:44:14.673Z,17.48
2023-05-16T12:46:44.633Z,12.57
2023-05-16T12:49:15.050Z,13.95
2023-05-16T12:51:51.385Z,15.05
2023-05-16T12:54:21.143Z,15.70
2023-05-16T12:56:51.409Z,17.63
2023-05-16T12:59:20.457Z,16.63
2023-05-16T13:01:49.053Z,17.10
2023-05-16T13:04:23.184Z,15.15
2023-05-16T13:09:24.206Z,13.98
2023-05-16T13:11:54.321Z,16.75
2023-05-16T13:14:23.360Z,13.43
2023-05-16T13:16:51.862Z,11.65
2023-05-16T13:19:20.471Z,14.57
2023-05-16T13:21:50.304Z,15.02
2023-05-16T13:24:18.781Z,13.02
2023-05-16T13:26:47.540Z,14.52
2023-05-16T13:29:17.822Z,15.25
2023-05-16T13:31:46.654Z,13.73
2023-05-16T13:34:15.196Z,17.13
2023-05-16T13:36:54.065Z,15.82
2023-05-16T13:39:25.368Z,21.63
2023-05-16T13:41:54.161Z,15.15
2023-05-16T13:44:24.124Z,15.63
2023-05-16T13:46:53.029Z,17.80
2023-05-16T13:49:22.420Z,13.48
2023-05-16T13:51:52.359Z,12.40
2023-05-16T13:54:22.224Z,15.18
2023-05-16T13:56:50.796Z,13.80
2023-05-16T13:59:27.508Z,13.50
2023-05-16T14:02:09.940Z,15.25
2023-05-16T14:04:38.680Z,14.93
2023-05-16T14:07:07.502Z,13.88
2023-05-16T14:09:39.403Z,16.98
2023-05-16T14:12:08.779Z,13.80
2023-05-16T14:14:37.922Z,18.13
2023-05-16T14:17:07.851Z,16.23
2023-05-16T14:19:37.880Z,19.85
2023-05-16T14:22:06.775Z,14.40
2023-05-16T14:24:35.417Z,17.33
2023-05-16T14:27:04.200Z,14.55
2023-05-16T14:29:32.781Z,10.98
2023-05-16T14:32:01.280Z,16.95
2023-05-16T14:34:30.489Z,15.90
2023-05-16T14:37:02.244Z,14.25
2023-05-16T14:39:30.654Z,14.77
2023-05-16T14:41:59.509Z,16.65
2023-05-16T14:44:28.177Z,17.10
2023-05-16T14:46:57.152Z,10.70
2023-05-16T14:49:25.854Z,14.10
2023-05-16T14:51:54.734Z,14.18
2023-05-16T14:54:25.123Z,13.57
2023-05-16T14:56:53.576Z,9.93
2023-05-16T14:59:22.328Z,14.18
2023-05-16T15:01:50.711Z,13.70
2023-05-16T15:04:19.425Z,14.30
2023-05-16T15:06:47.969Z,11.95
2023-05-16T15:09:17.861Z,13.07
2023-05-16T15:11:47.822Z,14.50
2023-05-16T15:14:16.234Z,15.18
2023-05-16T15:16:44.857Z,12.75
2023-05-16T15:19:13.535Z,10.88
2023-05-16T15:21:42.125Z,12.68
2023-05-16T15:24:10.808Z,12.25
2023-05-16T15:26:40.810Z,12.30
2023-05-16T15:29:11.160Z,11.00
2023-05-16T15:31:40.101Z,10.48
2023-05-16T15:34:08.916Z,12.65
2023-05-16T15:36:37.742Z,12.07
2023-05-16T15:39:06.197Z,12.45
2023-05-16T15:41:56.988Z,11.70
2023-05-16T15:44:25.582Z,8.10
2023-05-16T15:46:53.875Z,10.25
2023-05-16T15:49:22.418Z,8.18
2023-05-16T15:51:52.352Z,9.90
2023-05-16T15:54:21.059Z,11.18
2023-05-16T15:56:49.626Z,12.60
2023-05-16T15:59:18.714Z,10.55
2023-05-16T16:01:48.847Z,13.18
2023-05-16T16:04:21.041Z,11.95
2023-05-16T16:06:51.166Z,14.07
2023-05-16T16:09:19.650Z,16.95
2023-05-16T16:11:48.297Z,13.45
2023-05-16T16:14:16.778Z,11.15
2023-05-16T16:16:45.728Z,11.18
2023-05-16T16:19:15.660Z,10.77
2023-05-16T16:21:44.466Z,13.73
2023-05-16T16:24:13.525Z,15.40
2023-05-16T16:26:43.772Z,14.73
2023-05-16T16:29:12.469Z,12.98
2023-05-16T16:31:41.335Z,11.73
2023-05-16T16:34:10.213Z,13.75
2023-05-16T16:36:41.318Z,13.93
2023-05-16T16:39:10.911Z,11.15
2023-05-16T16:41:39.643Z,9.88
2023-05-16T16:44:08.322Z,8.18
2023-05-16T16:46:37.106Z,10.30
2023-05-16T16:49:05.953Z,11.40
2023-05-16T16:51:36.118Z,9.73
2023-05-16T16:54:15.425Z,8.68
2023-05-16T16:56:44.210Z,8.38
2023-05-16T16:59:12.885Z,8.02
2023-05-16T17:01:41.705Z,9.52
2023-05-16T17:04:10.246Z,9.55
2023-05-16T17:06:41.486Z,10.50
2023-05-16T17:09:14.158Z,8.48
2023-05-16T17:11:42.892Z,11.95
2023-05-16T17:14:12.749Z,10.30
2023-05-16T17:16:41.483Z,8.93
2023-05-16T17:19:11.600Z,6.25
2023-05-16T17:21:42.039Z,7.20
2023-05-16T17:24:12.231Z,10.15
2023-05-16T17:26:40.899Z,9.18
2023-05-16T17:29:09.366Z,11.57
2023-05-16T17:31:37.995Z,12.30
2023-05-16T17:34:06.555Z,9.00
2023-05-16T17:36:36.508Z,10.32
2023-05-16T17:39:08.046Z,10.98
2023-05-16T17:41:49.662Z,9.07
2023-05-16T17:44:21.671Z,8.55
2023-05-16T17:46:50.588Z,7.95
2023-05-16T17:49:19.093Z,7.78
2023-05-16T17:51:48.813Z,11.68
2023-05-16T17:54:18.750Z,8.68
2023-05-16T17:56:49.894Z,9.73
2023-05-16T17:59:19.500Z,9.38
2023-05-16T18:01:56.339Z,13.32
2023-05-16T18:04:40.433Z,11.52
2023-05-16T18:10:56.823Z,11.07
2023-05-16T18:13:29.471Z,10.75
2023-05-16T18:15:57.950Z,10.68
2023-05-16T18:18:27.308Z,7.57
2023-05-16T18:20:55.716Z,8.60
2023-05-16T18:23:24.878Z,10.65
2023-05-16T18:25:54.200Z,11.00
2023-05-16T18:28:22.757Z,9.95
2023-05-16T18:30:52.753Z,12.05
2023-05-16T18:33:21.277Z,10.73
2023-05-16T18:35:49.681Z,8.07
2023-05-16T18:38:31.509Z,10.13
2023-05-16T18:41:01.542Z,10.82
2023-05-16T18:43:30.531Z,8.85
2023-05-16T18:46:00.473Z,9.23
2023-05-16T18:48:29.451Z,9.40
2023-05-16T18:50:57.909Z,10.80
2023-05-16T18:53:26.528Z,10.93
2023-05-16T18:55:55.089Z,12.68
2023-05-16T18:58:23.802Z,10.48
2023-05-16T19:00:53.058Z,16.05
2023-05-16T19:03:23.365Z,16.63
2023-05-16T19:05:53.395Z,10.25
2023-05-16T19:08:25.596Z,10.30
2023-05-16T19:10:57.480Z,16.38
2023-05-16T19:13:25.912Z,15.68
2023-05-16T19:15:55.096Z,13.25
2023-05-16T19:18:25.431Z,17.23
2023-05-16T19:20:54.409Z,20.25
2023-05-16T19:23:22.984Z,18.75
2023-05-16T19:25:52.448Z,15.77
2023-05-16T19:28:36.295Z,22.65
2023-05-16T19:31:05.267Z,18.20
2023-05-16T19:33:35.540Z,21.63
2023-05-16T19:36:06.280Z,18.10
2023-05-16T19:38:34.598Z,14.45
2023-05-16T19:41:03.108Z,12.27
2023-05-16T19:43:31.532Z,15.68
2023-05-16T19:46:03.540Z,15.10
2023-05-16T19:48:35.561Z,15.85
2023-05-16T19:51:05.667Z,15.93
2023-05-16T19:53:34.171Z,12.50
2023-05-16T19:56:02.725Z,13.48
2023-05-16T19:58:32.204Z,14.00
2023-05-16T20:01:00.855Z,12.23
2023-05-16T20:03:31.342Z,16.15
2023-05-16T20:06:01.499Z,15.40
2023-05-16T20:08:29.919Z,16.90
2023-05-16T20:10:58.334Z,11.45
2023-05-16T20:13:26.855Z,16.15
2023-05-16T20:15:55.504Z,17.48
2023-05-16T20:18:27.027Z,16.40
2023-05-16T20:20:57.992Z,18.50
2023-05-16T20:23:28.837Z,20.48
2023-05-16T20:25:59.400Z,15.27
2023-05-16T20:28:27.714Z,15.98
2023-05-16T20:30:56.755Z,17.65
2023-05-16T20:33:25.715Z,19.27
2023-05-16T20:35:56.267Z,16.67
2023-05-16T20:38:24.912Z,22.63
2023-05-16T20:40:58.158Z,19.70
2023-05-16T20:43:27.301Z,25.02
2023-05-16T20:45:56.103Z,20.00
2023-05-16T20:48:25.875Z,22.80
2023-05-16T20:50:57.355Z,28.92
2023-05-16T20:53:28.111Z,24.10
2023-05-16T20:55:58.157Z,26.65
2023-05-16T20:58:28.883Z,24.52
2023-05-16T21:00:57.529Z,27.73
2023-05-16T21:03:26.101Z,24.92
2023-05-16T21:05:56.020Z,25.73
2023-05-16T21:08:24.858Z,19.92
2023-05-16T21:10:53.443Z,23.75
2023-05-16T21:13:24.581Z,23.38
2023-05-16T21:15:53.438Z,20.90
2023-05-16T21:18:23.102Z,24.25
2023-05-16T21:20:51.619Z,23.88
2023-05-16T21:23:23.037Z,17.80
2023-05-16T21:25:51.536Z,18.05
2023-05-16T21:28:22.851Z,23.17
2023-05-16T21:30:52.937Z,23.02
2023-05-16T21:33:23.493Z,25.30
2023-05-16T21:35:55.644Z,25.65
2023-05-16T21:38:25.884Z,19.95
2023-05-16T21:40:55.394Z,21.85
2023-05-16T21:43:25.301Z,16.98
2023-05-16T21:45:55.963Z,20.80
2023-05-16T21:48:24.714Z,24.05
2023-05-16T21:50:53.746Z,22.48
2023-05-16T21:53:24.284Z,21.27
2023-05-16T21:55:53.720Z,26.20
2023-05-16T21:58:25.435Z,25.58
2023-05-16T22:00:54.009Z,26.33
2023-05-16T22:03:22.504Z,26.75
2023-05-16T22:05:52.095Z,25.02
2023-05-16T22:08:20.812Z,21.38
2023-05-16T22:10:49.161Z,20.35
2023-05-16T22:13:18.550Z,16.50
2023-05-16T22:16:03.261Z,23.30
2023-05-16T22:18:34.109Z,19.02
2023-05-16T22:21:05.351Z,21.60
2023-05-16T22:23:34.260Z,19.60
2023-05-16T22:26:04.473Z,20.92
2023-05-16T22:28:35.301Z,28.40
2023-05-16T22:31:05.433Z,25.15
2023-05-16T22:33:34.040Z,23.42
2023-05-16T22:36:03.447Z,18.33
2023-05-16T22:38:32.073Z,17.58
2023-05-16T22:41:03.484Z,18.35
2023-05-16T22:43:32.233Z,21.05
2023-05-16T22:46:03.265Z,22.48
2023-05-16T22:48:33.561Z,17.67
2023-05-16T22:51:02.801Z,18.50
2023-05-16T22:53:31.701Z,21.23
2023-05-16T22:56:00.433Z,17.95
2023-05-16T22:58:33.389Z,23.00
2023-05-16T23:01:03.166Z,22.15
2023-05-16T23:03:35.095Z,23.27
2023-05-16T23:06:04.963Z,23.48
2023-05-16T23:08:33.598Z,25.23
2023-05-16T23:11:04.234Z,20.58
2023-05-16T23:13:34.082Z,23.73
2023-05-16T23:16:04.660Z,21.60
2023-05-16T23:18:35.112Z,20.98
2023-05-16T23:21:03.759Z,23.33
2023-05-16T23:23:32.329Z,19.40
2023-05-16T23:26:00.959Z,23.35
2023-05-16T23:28:30.472Z,35.47
2023-05-16T23:31:03.082Z,31.75
2023-05-16T23:33:31.597Z,22.63
2023-05-16T23:36:02.717Z,19.85
2023-05-16T23:38:32.254Z,26.45
2023-05-16T23:41:01.833Z,21.13
2023-05-16T23:43:36.137Z,23.15
2023-05-16T23:46:04.793Z,18.60
2023-05-16T23:48:33.492Z,18.58
2023-05-16T23:51:07.935Z,21.02
2023-05-16T23:53:37.812Z,26.13
2023-05-16T23:56:06.751Z,29.13
2023-05-16T23:58:35.375Z,25.42
